Time;durP1;ratioP1;P1;durP2;ratioP2;P2;SDS_P1;SDS_P2;PMS_P1;PMS_P2;Temp;Humidity;BMP_temperature;BMP_pressure;BME280_temperature;BME280_humidity;BME280_pressure;Samples;Min_cycle;Max_cycle;Signal;HPM_P1;HPM_P2
2024/03/07 00:00:17;;;;;;;;;21.00;16.75;;;;;8.11;73.88;101635.41;5070433;27;45597;-67
2024/03/07 00:02:50;;;;;;;;;20.50;17.50;;;;;8.09;74.03;101634.53;5075277;27;45299;-68
2024/03/07 00:05:21;;;;;;;;;23.50;18.50;;;;;8.06;74.02;101633.69;5068611;27;45341;-68
2024/03/07 00:07:47;;;;;;;;;26.00;19.00;;;;;8.03;74.30;101633.69;5078084;28;45338;-69
2024/03/07 00:10:15;;;;;;;;;26.50;20.75;;;;;8.02;74.10;101629.31;5068250;27;46204;-69
2024/03/07 00:12:40;;;;;;;;;18.25;16.75;;;;;7.98;74.46;101633.66;5070179;27;45305;-68
2024/03/07 00:15:10;;;;;;;;;22.75;19.00;;;;;7.92;74.69;101628.47;5070074;27;66577;-70
2024/03/07 00:17:36;;;;;;;;;25.00;20.00;;;;;7.92;74.75;101623.28;5074225;27;45501;-68
2024/03/07 00:20:08;;;;;;;;;21.00;19.50;;;;;7.91;74.59;101624.13;5066806;27;47674;-68
2024/03/07 00:22:37;;;;;;;;;28.25;21.25;;;;;7.86;74.77;101613.72;5065299;27;45955;-68
2024/03/07 00:25:05;;;;;;;;;30.00;21.00;;;;;7.85;74.95;101617.19;5062227;28;45392;-68
2024/03/07 00:27:33;;;;;;;;;23.25;19.50;;;;;7.83;75.24;101618.94;5064863;27;45595;-68
2024/03/07 00:29:59;;;;;;;;;19.25;15.25;;;;;7.78;75.26;101613.72;5073850;28;61212;-68
2024/03/07 00:32:24;;;;;;;;;17.00;16.25;;;;;7.79;74.87;101618.06;5061079;28;45352;-67
2024/03/07 00:34:50;;;;;;;;;19.00;18.00;;;;;7.77;75.08;101626.75;5069757;28;45230;-68
2024/03/07 00:37:16;;;;;;;;;25.25;22.25;;;;;7.71;75.28;101614.59;5061557;28;45439;-68
2024/03/07 00:39:42;;;;;;;;;24.00;22.75;;;;;7.70;75.49;101622.41;5061670;28;46060;-68
2024/03/07 00:42:07;;;;;;;;;24.75;17.00;;;;;7.67;75.53;101617.22;5064594;28;45478;-68
2024/03/07 00:44:34;;;;;;;;;27.50;21.25;;;;;7.66;75.71;101621.53;5074674;28;45434;-68
2024/03/07 00:46:59;;;;;;;;;25.25;18.00;;;;;7.67;75.88;101625.03;5068124;27;45539;-67
2024/03/07 00:49:25;;;;;;;;;27.50;23.25;;;;;7.66;75.93;101625.91;5056687;28;54010;-68
2024/03/07 00:51:51;;;;;;;;;26.00;22.75;;;;;7.64;75.67;101620.69;5067895;28;45149;-68
2024/03/07 00:54:16;;;;;;;;;22.00;21.00;;;;;7.57;75.55;101608.53;5069560;28;46083;-69
2024/03/07 00:56:42;;;;;;;;;28.50;24.00;;;;;7.61;76.11;101610.25;5067819;28;45560;-69
2024/03/07 00:59:07;;;;;;;;;27.75;23.75;;;;;7.62;76.01;101609.41;5072886;28;45258;-68
2024/03/07 01:01:33;;;;;;;;;27.75;24.75;;;;;7.62;76.24;101617.22;5061464;28;45323;-68
2024/03/07 01:04:00;;;;;;;;;33.00;25.25;;;;;7.60;76.08;101612.00;5061533;28;45272;-67
2024/03/07 01:06:25;;;;;;;;;24.75;21.25;;;;;7.55;76.14;101600.72;5059599;28;45448;-66
2024/03/07 01:08:51;;;;;;;;;19.25;19.25;;;;;7.59;76.59;101612.00;5072122;28;46765;-67
2024/03/07 01:11:17;;;;;;;;;25.00;21.75;;;;;7.58;76.07;101610.28;5063274;28;45490;-67
2024/03/07 01:13:42;;;;;;;;;27.25;22.25;;;;;7.59;76.44;101602.44;5066776;28;45413;-67
2024/03/07 01:16:08;;;;;;;;;30.00;22.00;;;;;7.56;76.48;101596.38;5069845;28;45533;-67
2024/03/07 01:18:33;;;;;;;;;24.00;22.75;;;;;7.58;76.30;101602.47;5064609;28;45837;-68
2024/03/07 01:21:00;;;;;;;;;28.25;22.00;;;;;7.56;76.33;101592.06;5063510;27;45453;-67
2024/03/07 01:23:25;;;;;;;;;28.00;20.25;;;;;7.58;76.50;101603.31;5076191;28;45446;-67
2024/03/07 01:25:50;;;;;;;;;29.00;21.00;;;;;7.58;76.35;101594.66;5071462;27;70342;-68
2024/03/07 01:28:17;;;;;;;;;18.75;16.25;;;;;7.57;76.36;101593.75;5074527;27;45406;-67
2024/03/07 01:30:42;;;;;;;;;19.00;18.25;;;;;7.56;76.38;101585.94;5073970;27;45856;-68
2024/03/07 01:33:07;;;;;;;;;23.25;20.50;;;;;7.56;76.29;101588.56;5063590;28;45235;-67
2024/03/07 01:35:33;;;;;;;;;29.50;18.25;;;;;7.55;76.25;101584.22;5072337;28;72510;-67
2024/03/07 01:37:58;;;;;;;;;23.25;16.75;;;;;7.54;76.32;101579.88;5066229;27;57510;-67
2024/03/07 01:40:24;;;;;;;;;25.75;23.00;;;;;7.54;76.48;101572.06;5073983;28;71249;-67
2024/03/07 01:42:50;;;;;;;;;23.50;18.00;;;;;7.54;76.70;101572.06;5071539;27;61177;-67
2024/03/07 01:45:16;;;;;;;;;27.75;16.50;;;;;7.54;76.32;101565.13;5071789;27;45417;-68
2024/03/07 01:47:41;;;;;;;;;20.00;16.25;;;;;7.53;76.14;101563.38;5077650;27;46382;-67
2024/03/07 01:50:07;;;;;;;;;15.50;12.25;;;;;7.53;76.25;101555.56;5090495;27;45452;-67
2024/03/07 01:52:32;;;;;;;;;19.00;18.25;;;;;7.53;76.20;101557.31;5067525;28;45935;-67
2024/03/07 01:54:58;;;;;;;;;16.00;11.00;;;;;7.51;76.12;101552.13;5065096;28;65910;-67
2024/03/07 01:57:23;;;;;;;;;18.00;15.50;;;;;7.49;76.07;101538.22;5068196;28;75559;-67
2024/03/07 01:59:50;;;;;;;;;31.00;22.00;;;;;7.48;76.13;101539.09;5075568;27;70619;-67
2024/03/07 02:02:16;;;;;;;;;27.50;22.25;;;;;7.47;76.45;101533.88;5069149;27;45306;-67
2024/03/07 02:04:42;;;;;;;;;27.25;25.50;;;;;7.45;76.44;101533.88;5077371;28;45267;-68
2024/03/07 02:07:11;;;;;;;;;26.25;17.00;;;;;7.43;76.34;101537.38;5067137;27;45512;-67
2024/03/07 02:09:36;;;;;;;;;24.50;18.50;;;;;7.42;76.56;101528.69;5065730;28;45350;-67
2024/03/07 02:12:02;;;;;;;;;29.00;22.50;;;;;7.40;76.62;101530.41;5068555;27;45350;-66
2024/03/07 02:14:27;;;;;;;;;24.25;21.75;;;;;7.37;76.67;101520.88;5072014;27;45527;-66
2024/03/07 02:16:56;;;;;;;;;22.50;19.00;;;;;7.38;76.75;101524.34;5059315;27;47864;-66
2024/03/07 02:19:21;;;;;;;;;22.25;17.50;;;;;7.34;76.95;101518.25;5047420;28;45354;-66
2024/03/07 02:21:47;;;;;;;;;28.25;18.25;;;;;7.35;76.80;101521.75;5064178;27;45233;-66
2024/03/07 02:24:12;;;;;;;;;22.75;18.50;;;;;7.34;76.82;101520.88;5062096;28;73160;-67
2024/03/07 02:26:39;;;;;;;;;22.25;16.75;;;;;7.32;76.65;101525.22;5071253;28;46063;-67
2024/03/07 02:29:05;;;;;;;;;26.50;18.50;;;;;7.28;77.05;101513.06;5067206;27;45911;-67
2024/03/07 02:31:36;;;;;;;;;25.50;18.75;;;;;7.27;76.96;101513.06;5064202;27;45609;-68
2024/03/07 02:34:03;;;;;;;;;24.00;20.25;;;;;7.25;77.12;101514.81;5068222;27;45742;-67
2024/03/07 02:36:28;;;;;;;;;22.00;18.00;;;;;7.22;77.25;101506.16;5075992;27;45748;-67
2024/03/07 02:38:54;;;;;;;;;25.25;21.00;;;;;7.21;77.31;101508.75;5076943;27;45390;-66
2024/03/07 02:41:19;;;;;;;;;30.25;22.75;;;;;7.20;77.01;101510.47;5068537;27;45433;-65
2024/03/07 02:43:44;;;;;;;;;23.25;22.50;;;;;7.17;77.19;101494.88;5069997;28;45321;-65
2024/03/07 02:46:11;;;;;;;;;26.00;21.00;;;;;7.14;77.17;101491.41;5063784;27;67628;-65
2024/03/07 02:48:37;;;;;;;;;24.50;19.25;;;;;7.13;77.37;101489.66;5084846;27;45416;-66
2024/03/07 02:51:03;;;;;;;;;21.00;19.50;;;;;7.11;77.45;101491.38;5075419;28;45324;-65
2024/03/07 02:53:28;;;;;;;;;31.00;25.00;;;;;7.09;77.29;101490.53;5059858;28;45467;-66
2024/03/07 02:55:54;;;;;;;;;22.50;19.25;;;;;7.07;77.49;101493.13;5074462;28;66927;-66
2024/03/07 02:58:20;;;;;;;;;33.25;22.75;;;;;7.02;77.59;101479.25;5075958;28;45478;-67
2024/03/07 03:00:45;;;;;;;;;27.75;23.25;;;;;7.04;77.74;101482.72;5068749;28;45299;-66
2024/03/07 03:03:10;;;;;;;;;32.25;25.00;;;;;6.98;77.82;101477.53;5065862;28;61695;-66
2024/03/07 03:05:35;;;;;;;;;36.25;26.00;;;;;7.02;77.99;101487.91;5064997;27;73248;-65
2024/03/07 03:08:01;;;;;;;;;24.75;23.75;;;;;7.01;78.11;101485.31;5070379;27;73026;-66
2024/03/07 03:10:28;;;;;;;;;33.00;27.00;;;;;6.96;78.35;101482.72;5076532;27;45549;-66
2024/03/07 03:12:57;;;;;;;;;26.00;23.75;;;;;6.96;78.27;101490.53;5069233;27;45274;-66
2024/03/07 03:15:23;;;;;;;;;34.00;24.00;;;;;6.93;78.01;101481.84;5068759;28;46429;-66
2024/03/07 03:17:48;;;;;;;;;27.25;18.75;;;;;6.91;78.00;101478.41;5069720;27;45449;-66
2024/03/07 03:20:25;;;;;;;;;29.00;21.00;;;;;6.88;78.04;101478.38;5062621;27;45531;-66
2024/03/07 03:22:54;;;;;;;;;27.50;18.75;;;;;6.82;78.12;101469.72;5062610;28;45393;-66
2024/03/07 03:25:23;;;;;;;;;28.00;23.00;;;;;6.80;78.07;101468.00;5063189;28;46240;-66
2024/03/07 03:27:48;;;;;;;;;29.50;25.25;;;;;6.77;78.39;101466.22;5061334;28;45304;-66
2024/03/07 03:30:14;;;;;;;;;28.00;23.25;;;;;6.75;78.47;101462.78;5065795;28;45476;-66
2024/03/07 03:32:40;;;;;;;;;23.25;20.00;;;;;6.73;78.45;101461.91;5073574;28;45447;-66
2024/03/07 03:35:07;;;;;;;;;33.25;24.50;;;;;6.69;78.46;101456.69;5074790;27;45462;-67
2024/03/07 03:37:32;;;;;;;;;27.00;20.75;;;;;6.67;78.82;101461.03;5071805;27;45279;-66
2024/03/07 03:39:58;;;;;;;;;30.50;24.00;;;;;6.63;78.60;101453.22;5063569;27;67326;-66
2024/03/07 03:42:23;;;;;;;;;25.25;19.00;;;;;6.58;78.89;101457.53;5075801;27;45193;-68
2024/03/07 03:44:49;;;;;;;;;27.75;21.00;;;;;6.55;78.70;101457.56;5065167;28;75622;-66
2024/03/07 03:47:14;;;;;;;;;25.25;22.25;;;;;6.51;78.93;101454.94;5081126;27;45378;-66
2024/03/07 03:49:40;;;;;;;;;24.50;15.75;;;;;6.48;78.87;101453.22;5063926;27;67873;-66
2024/03/07 03:52:05;;;;;;;;;24.25;17.50;;;;;6.44;78.96;101452.31;5068815;28;69004;-66
2024/03/07 03:54:30;;;;;;;;;24.50;17.50;;;;;6.42;79.18;101458.41;5074683;27;47683;-66
2024/03/07 03:56:56;;;;;;;;;25.00;18.75;;;;;6.41;79.54;101451.44;5062414;27;71047;-65
2024/03/07 03:59:21;;;;;;;;;27.75;23.00;;;;;6.38;79.36;101452.31;5066341;27;55755;-65
2024/03/07 04:01:48;;;;;;;;;23.75;21.00;;;;;6.36;80.06;101459.25;5074640;27;71948;-66
2024/03/07 04:04:13;;;;;;;;;28.75;20.75;;;;;6.37;79.78;101454.91;5077353;27;47758;-65
2024/03/07 04:06:39;;;;;;;;;24.25;20.25;;;;;6.36;79.86;101448.84;5087342;27;65757;-66
2024/03/07 04:09:04;;;;;;;;;18.75;16.00;;;;;6.35;79.95;101446.25;5079204;27;45355;-66
2024/03/07 04:11:30;;;;;;;;;25.75;20.00;;;;;6.34;80.07;101448.00;5073568;27;45288;-65
2024/03/07 04:13:55;;;;;;;;;29.50;20.00;;;;;6.35;80.13;101451.44;5067848;27;47590;-66
2024/03/07 04:16:21;;;;;;;;;23.00;19.25;;;;;6.29;79.93;101438.44;5071397;28;45620;-65
2024/03/07 04:18:46;;;;;;;;;27.75;18.75;;;;;6.33;79.99;101447.97;5067526;27;54620;-65
2024/03/07 04:21:12;;;;;;;;;20.00;17.75;;;;;6.32;79.80;101451.44;5061961;28;45481;-65
2024/03/07 04:23:40;;;;;;;;;21.50;15.00;;;;;6.30;80.15;101446.22;5077770;27;46094;-65
2024/03/07 04:26:05;;;;;;;;;21.75;13.50;;;;;6.28;80.16;101453.16;5062937;27;45516;-65
2024/03/07 04:28:30;;;;;;;;;24.00;16.00;;;;;6.29;80.41;101449.72;5067748;27;69112;-64
2024/03/07 04:30:56;;;;;;;;;19.75;16.50;;;;;6.30;80.46;101453.16;5070167;28;45480;-66
2024/03/07 04:33:21;;;;;;;;;18.00;16.00;;;;;6.29;80.12;101454.06;5075660;27;46233;-65
2024/03/07 04:35:47;;;;;;;;;12.00;8.25;;;;;6.26;79.98;101449.69;5063871;28;68124;-65
2024/03/07 04:38:14;;;;;;;;;15.25;13.75;;;;;6.25;80.26;101450.53;5074249;27;59397;-65
2024/03/07 04:40:41;;;;;;;;;15.50;15.50;;;;;6.25;79.91;101447.94;5064033;28;45488;-65
2024/03/07 04:43:07;;;;;;;;;23.00;17.25;;;;;6.22;79.88;101442.75;5068972;27;46173;-66
2024/03/07 04:45:33;;;;;;;;;14.75;14.00;;;;;6.19;80.37;101435.81;5075471;28;47224;-65
2024/03/07 04:47:59;;;;;;;;;20.75;14.25;;;;;6.19;80.11;101437.56;5071321;27;45447;-66
2024/03/07 04:50:24;;;;;;;;;21.75;14.50;;;;;6.17;79.92;101436.69;5068276;28;45213;-67
2024/03/07 04:52:49;;;;;;;;;19.50;14.50;;;;;6.14;80.06;101437.53;5062985;27;45429;-66
2024/03/07 04:55:15;;;;;;;;;25.75;17.75;;;;;6.13;80.18;101440.16;5078629;27;70800;-67
2024/03/07 04:57:41;;;;;;;;;15.75;13.50;;;;;6.07;80.67;101431.47;5072509;27;45461;-66
2024/03/07 05:00:13;;;;;;;;;18.25;14.50;;;;;6.07;80.41;101426.28;5073938;27;45537;-68
2024/03/07 05:02:38;;;;;;;;;18.50;13.00;;;;;6.06;80.73;101432.31;5071699;27;45923;-67
2024/03/07 05:05:04;;;;;;;;;16.50;14.25;;;;;6.09;80.54;101434.03;5068959;27;45325;-66
2024/03/07 05:07:29;;;;;;;;;17.00;12.50;;;;;6.07;80.26;101436.66;5065771;28;45523;-67
2024/03/07 05:09:54;;;;;;;;;17.25;12.00;;;;;6.04;80.14;101433.19;5071214;28;59285;-67
2024/03/07 05:12:19;;;;;;;;;16.25;11.00;;;;;6.01;80.09;101447.03;5069894;27;75564;-67
2024/03/07 05:14:45;;;;;;;;;17.25;13.75;;;;;5.97;80.22;101434.91;5073422;27;70633;-68
2024/03/07 05:17:10;;;;;;;;;17.75;12.75;;;;;5.96;80.31;101437.47;5069283;27;45418;-66
2024/03/07 05:19:36;;;;;;;;;18.50;13.25;;;;;5.96;80.61;101432.28;5069410;27;45478;-67
2024/03/07 05:22:04;;;;;;;;;14.00;12.75;;;;;5.94;80.25;101434.00;5087351;27;46221;-69
2024/03/07 05:24:30;;;;;;;;;14.75;12.50;;;;;5.94;80.38;101432.25;5054587;28;45431;-66
2024/03/07 05:26:56;;;;;;;;;17.75;13.25;;;;;5.96;80.56;101437.47;5076082;27;45569;-66
2024/03/07 05:29:22;;;;;;;;;13.00;10.25;;;;;5.95;80.35;101425.31;5066486;28;45512;-65
2024/03/07 05:31:48;;;;;;;;;9.00;9.00;;;;;5.94;79.95;101421.00;5064106;27;46010;-66
2024/03/07 05:34:14;;;;;;;;;12.00;8.25;;;;;5.93;79.92;101425.31;5068870;27;45444;-66
2024/03/07 05:36:44;;;;;;;;;9.75;3.00;;;;;5.89;79.80;101421.81;5063013;28;45359;-65
2024/03/07 05:39:11;;;;;;;;;19.00;9.50;;;;;5.89;80.07;101423.56;5065311;27;45459;-68
2024/03/07 05:41:40;;;;;;;;;14.75;10.50;;;;;5.87;79.92;101423.56;5065032;27;45394;-66
2024/03/07 05:44:08;;;;;;;;;10.75;8.75;;;;;5.86;79.91;101427.03;5066324;27;45465;-65
2024/03/07 05:46:45;;;;;;;;;8.25;5.25;;;;;5.84;79.95;101433.97;5058643;28;45455;-65
2024/03/07 05:49:10;;;;;;;;;14.00;9.00;;;;;5.81;79.75;101425.28;5076865;27;45278;-65
2024/03/07 05:51:36;;;;;;;;;12.75;12.50;;;;;5.77;79.52;101429.59;5076042;27;74539;-65
2024/03/07 05:54:06;;;;;;;;;14.00;9.75;;;;;5.76;79.66;101434.78;5060261;28;45697;-65
2024/03/07 05:56:32;;;;;;;;;17.25;12.50;;;;;5.72;79.68;101423.53;5069322;27;45386;-66
2024/03/07 05:58:57;;;;;;;;;10.50;9.75;;;;;5.73;79.88;101426.97;5088584;27;45349;-67
2024/03/07 06:01:25;;;;;;;;;16.25;10.50;;;;;5.70;79.90;101420.03;5065516;28;62699;-65
2024/03/07 06:03:51;;;;;;;;;11.75;8.75;;;;;5.70;79.89;101422.63;5066244;28;45407;-66
2024/03/07 06:06:16;;;;;;;;;14.25;11.75;;;;;5.69;80.03;101424.34;5062229;27;45264;-67
2024/03/07 06:08:43;;;;;;;;;14.00;13.00;;;;;5.68;80.07;101426.94;5073377;27;45478;-66
2024/03/07 06:11:09;;;;;;;;;12.75;9.00;;;;;5.70;79.92;101422.63;5052264;28;46173;-66
2024/03/07 06:13:34;;;;;;;;;17.75;13.00;;;;;5.69;79.84;101418.31;5076871;28;45247;-66
2024/03/07 06:16:04;;;;;;;;;15.00;10.75;;;;;5.69;79.86;101415.72;5071064;27;69193;-66
2024/03/07 06:18:31;;;;;;;;;15.50;11.25;;;;;5.68;79.97;101414.84;5068205;28;45509;-66
2024/03/07 06:20:56;;;;;;;;;13.50;10.75;;;;;5.67;79.90;101413.09;5065592;27;45793;-66
2024/03/07 06:23:22;;;;;;;;;16.25;11.25;;;;;5.67;79.86;101426.09;5064451;28;45310;-66
2024/03/07 06:25:50;;;;;;;;;15.00;13.00;;;;;5.68;79.73;101419.16;5077646;27;45280;-66
2024/03/07 06:28:16;;;;;;;;;20.00;12.25;;;;;5.68;80.10;101424.34;5071729;27;45696;-66
2024/03/07 06:30:46;;;;;;;;;16.50;9.75;;;;;5.68;80.06;101420.03;5076819;27;45450;-66
2024/03/07 06:33:12;;;;;;;;;18.50;11.00;;;;;5.69;80.01;101407.91;5068317;27;45920;-65
2024/03/07 06:35:38;;;;;;;;;16.50;13.00;;;;;5.71;79.94;101411.38;5075387;28;45343;-65
2024/03/07 06:38:08;;;;;;;;;17.25;12.75;;;;;5.73;80.07;101401.00;5070143;27;45170;-65
2024/03/07 06:40:42;;;;;;;;;17.00;11.25;;;;;5.77;80.07;101403.63;5078112;27;45687;-66
2024/03/07 06:43:10;;;;;;;;;14.25;11.75;;;;;5.81;79.68;101407.09;5075224;27;45935;-67
2024/03/07 06:45:36;;;;;;;;;11.75;10.75;;;;;5.82;79.92;101407.09;5070017;27;45432;-66
2024/03/07 06:48:07;;;;;;;;;19.50;18.00;;;;;5.86;79.85;101398.47;5067666;27;45442;-67
2024/03/07 06:50:33;;;;;;;;;16.00;11.75;;;;;5.90;79.92;101400.19;5067740;28;46646;-67
2024/03/07 06:52:59;;;;;;;;;17.25;13.50;;;;;5.96;79.89;101398.50;5072601;27;45969;-66
2024/03/07 06:55:24;;;;;;;;;22.00;14.25;;;;;6.01;79.75;101407.19;5072896;27;45620;-66
2024/03/07 06:57:49;;;;;;;;;16.75;13.00;;;;;6.03;79.76;101398.53;5061316;28;60683;-64
2024/03/07 07:00:21;;;;;;;;;14.75;12.75;;;;;6.08;79.59;101403.75;5066142;28;60444;-66
2024/03/07 07:02:48;;;;;;;;;17.50;12.00;;;;;6.12;79.44;101399.41;5065620;27;45391;-66
2024/03/07 07:05:18;;;;;;;;;18.75;13.00;;;;;6.17;79.61;101402.91;5063696;28;46921;-66
2024/03/07 07:07:46;;;;;;;;;15.00;9.25;;;;;6.25;78.96;101393.38;5068536;27;45712;-66
2024/03/07 07:10:17;;;;;;;;;13.00;9.25;;;;;6.32;78.86;101392.53;5069957;28;46604;-66
2024/03/07 07:12:44;;;;;;;;;11.75;7.75;;;;;6.36;78.50;101388.22;5061832;28;46171;-66
2024/03/07 07:15:11;;;;;;;;;17.00;13.00;;;;;6.41;78.40;101394.25;5047919;28;45525;-66
2024/03/07 07:17:38;;;;;;;;;100.00;77.75;;;;;6.45;78.39;101385.59;5069948;28;45334;-72
2024/03/07 07:20:10;;;;;;;;;117.00;94.75;;;;;6.48;78.28;101388.22;5064966;27;45568;-65
2024/03/07 07:22:38;;;;;;;;;24.75;16.25;;;;;6.51;78.22;101388.19;5066665;27;45458;-65
2024/03/07 07:25:05;;;;;;;;;24.75;21.25;;;;;6.55;78.30;101381.25;5067573;28;45616;-68
2024/03/07 07:27:32;;;;;;;;;18.75;16.75;;;;;6.56;78.20;101377.81;5062253;28;45491;-68
2024/03/07 07:29:57;;;;;;;;;15.25;13.00;;;;;6.56;78.32;101372.59;5069062;28;46584;-67
2024/03/07 07:32:23;;;;;;;;;18.00;15.00;;;;;6.61;77.84;101376.06;5057879;28;72565;-68
2024/03/07 07:34:49;;;;;;;;;22.50;15.25;;;;;6.64;77.84;101374.34;5068294;28;70385;-67
2024/03/07 07:37:14;;;;;;;;;20.00;13.50;;;;;6.67;77.66;101370.84;5073358;28;45514;-71
2024/03/07 07:39:39;;;;;;;;;14.25;12.75;;;;;6.71;77.53;101372.59;5054801;28;52469;-69
2024/03/07 07:42:05;;;;;;;;;24.50;15.75;;;;;6.76;77.47;101376.03;5070309;28;71367;-71
2024/03/07 07:44:30;;;;;;;;;25.50;20.50;;;;;6.78;77.46;101363.03;5069986;28;45323;-70
2024/03/07 07:46:55;;;;;;;;;21.00;17.50;;;;;6.85;77.43;101369.97;5065809;28;71932;-68
2024/03/07 07:49:21;;;;;;;;;20.00;15.00;;;;;6.87;77.16;101363.06;5071581;28;74398;-72
2024/03/07 07:51:48;;;;;;;;;16.50;14.25;;;;;6.94;77.38;101356.06;5066753;28;67417;-67
2024/03/07 07:54:14;;;;;;;;;19.75;16.25;;;;;6.96;76.93;101360.44;5074033;28;45332;-68
2024/03/07 07:56:39;;;;;;;;;17.25;10.00;;;;;6.99;77.03;101362.13;5063155;27;45451;-73
2024/03/07 07:59:04;;;;;;;;;25.00;16.00;;;;;7.03;76.64;101354.34;5070657;28;59981;-67
2024/03/07 08:01:30;;;;;;;;;21.50;15.25;;;;;7.10;76.78;101359.50;5072709;28;66870;-60
2024/03/07 08:03:55;;;;;;;;;19.75;14.25;;;;;7.13;76.69;101352.56;5064327;28;47088;-68
2024/03/07 08:06:21;;;;;;;;;20.00;16.75;;;;;7.16;76.86;101349.09;5067816;27;46304;-64
2024/03/07 08:08:46;;;;;;;;;20.75;15.00;;;;;7.19;76.60;101347.34;5065059;27;46423;-67
2024/03/07 08:11:13;;;;;;;;;23.75;15.75;;;;;7.21;76.55;101348.22;5063077;27;60349;-68
2024/03/07 08:13:40;;;;;;;;;15.00;13.50;;;;;7.26;76.15;101342.09;5061514;28;45376;-66
2024/03/07 08:16:05;;;;;;;;;21.75;16.25;;;;;7.25;75.98;101328.22;5073825;28;47888;-68
2024/03/07 08:18:31;;;;;;;;;21.75;18.75;;;;;7.27;75.75;101333.44;5053161;28;46312;-63
2024/03/07 08:20:56;;;;;;;;;21.00;14.50;;;;;7.30;75.84;101328.22;5066921;27;56768;-64
2024/03/07 08:23:24;;;;;;;;;26.50;17.75;;;;;7.33;75.68;101317.78;5073096;27;45351;-65
2024/03/07 08:25:50;;;;;;;;;17.75;16.00;;;;;7.36;75.70;101315.19;5067843;28;45604;-67
2024/03/07 08:28:15;;;;;;;;;20.75;17.00;;;;;7.42;75.68;101312.56;5061734;28;48439;-65
2024/03/07 08:30:41;;;;;;;;;22.00;16.00;;;;;7.44;75.24;101305.59;5072950;28;46028;-65
2024/03/07 08:33:07;;;;;;;;;19.25;15.25;;;;;7.48;75.11;101309.06;5063262;28;45446;-65
2024/03/07 08:35:33;;;;;;;;;28.75;16.50;;;;;7.51;74.92;101315.09;5061950;28;45307;-66
2024/03/07 08:37:58;;;;;;;;;17.75;17.50;;;;;7.54;74.75;101315.09;5063002;28;45948;-66
2024/03/07 08:40:32;;;;;;;;;22.00;18.50;;;;;7.59;74.72;101317.66;5064371;28;45429;-67
2024/03/07 08:42:58;;;;;;;;;20.75;13.75;;;;;7.63;74.58;101318.50;5069638;27;45250;-67
2024/03/07 08:45:24;;;;;;;;;23.00;17.75;;;;;7.68;74.48;101311.53;5069891;28;45559;-67
2024/03/07 08:47:52;;;;;;;;;28.25;18.50;;;;;7.75;74.46;101308.03;5066786;28;45662;-65
2024/03/07 08:50:18;;;;;;;;;28.50;19.50;;;;;7.83;74.33;101316.66;5076839;28;45920;-67
2024/03/07 08:52:47;;;;;;;;;17.75;14.75;;;;;7.91;73.96;101317.47;5075694;28;45516;-66
2024/03/07 08:55:14;;;;;;;;;21.50;16.00;;;;;8.00;73.82;101306.13;5067584;28;45403;-66
2024/03/07 08:57:41;;;;;;;;;22.75;19.75;;;;;8.11;73.71;101306.91;5059466;28;46873;-66
2024/03/07 09:00:11;;;;;;;;;24.00;16.75;;;;;8.23;73.18;101307.69;5084335;27;45998;-65
2024/03/07 09:02:39;;;;;;;;;24.50;20.75;;;;;8.31;73.47;101309.34;5071099;28;45274;-65
2024/03/07 09:05:06;;;;;;;;;20.75;16.00;;;;;8.42;72.93;101309.28;5064511;28;47498;-64
2024/03/07 09:07:32;;;;;;;;;19.00;15.75;;;;;8.51;72.49;101306.59;5076156;27;47172;-63
2024/03/07 09:09:57;;;;;;;;;20.00;16.25;;;;;8.61;72.40;101303.94;5069439;28;45359;-63
2024/03/07 09:12:25;;;;;;;;;18.75;16.00;;;;;8.71;72.06;101306.44;5072562;28;45346;-64
2024/03/07 09:14:50;;;;;;;;;19.00;16.75;;;;;8.82;71.65;101300.19;5074176;28;45260;-66
2024/03/07 09:17:17;;;;;;;;;22.25;16.25;;;;;8.91;71.30;101302.75;5071615;28;46619;-65
2024/03/07 09:19:42;;;;;;;;;15.50;14.25;;;;;9.00;71.09;101288.72;5090222;27;45331;-64
2024/03/07 09:22:08;;;;;;;;;15.25;12.50;;;;;9.12;70.89;101289.44;5077370;28;45584;-65
2024/03/07 09:24:34;;;;;;;;;17.75;14.25;;;;;9.23;70.49;101291.06;5073420;28;47284;-66
2024/03/07 09:27:00;;;;;;;;;18.00;16.00;;;;;9.31;70.16;101284.84;5081074;27;45222;-65
2024/03/07 09:29:26;;;;;;;;;21.75;16.25;;;;;9.42;70.18;101276.00;5062418;28;45815;-64
2024/03/07 09:31:53;;;;;;;;;18.75;14.00;;;;;9.50;69.69;101285.44;5064874;28;45311;-66
2024/03/07 09:34:20;;;;;;;;;15.50;13.00;;;;;9.59;69.18;101271.41;5065689;28;45503;-66
2024/03/07 09:36:49;;;;;;;;;14.75;12.50;;;;;9.71;69.19;101278.22;5072568;28;45587;-66
2024/03/07 09:39:15;;;;;;;;;18.75;16.00;;;;;9.82;68.79;101270.19;5062399;28;45230;-66
2024/03/07 09:41:41;;;;;;;;;16.25;16.25;;;;;9.93;68.39;101267.41;5066882;28;45373;-66
2024/03/07 09:44:10;;;;;;;;;15.00;14.25;;;;;10.01;68.53;101262.94;5059308;28;45484;-65
2024/03/07 09:46:36;;;;;;;;;18.25;15.00;;;;;10.06;67.96;101246.28;5059850;28;46368;-66
2024/03/07 09:49:01;;;;;;;;;30.25;25.00;;;;;10.18;67.60;101253.06;5068303;28;70060;-66
2024/03/07 09:51:27;;;;;;;;;24.75;22.50;;;;;10.29;67.34;101254.63;5063937;28;45455;-66
2024/03/07 09:53:53;;;;;;;;;24.75;18.50;;;;;10.39;66.90;101245.75;5068079;28;46575;-66
2024/03/07 09:56:22;;;;;;;;;22.25;14.00;;;;;10.50;66.61;101249.06;5054595;28;46951;-66
2024/03/07 09:58:51;;;;;;;;;18.50;14.25;;;;;10.60;66.99;101247.09;5064730;28;47461;-65
2024/03/07 10:01:20;;;;;;;;;26.00;17.75;;;;;10.74;66.70;101242.47;5068608;27;45329;-65
2024/03/07 10:03:47;;;;;;;;;20.00;15.50;;;;;10.83;66.05;101229.19;5079429;27;45473;-64
2024/03/07 10:06:13;;;;;;;;;17.00;15.00;;;;;10.95;66.15;101235.09;5072766;27;45393;-66
2024/03/07 10:08:40;;;;;;;;;17.50;15.50;;;;;11.01;65.13;101230.59;5072115;28;45307;-64
2024/03/07 10:11:05;;;;;;;;;55.00;38.25;;;;;11.10;64.73;101223.41;5062991;28;47164;-65
2024/03/07 10:13:31;;;;;;;;;50.25;33.75;;;;;11.21;64.57;101226.69;5062254;28;45226;-65
2024/03/07 10:16:00;;;;;;;;;23.25;18.00;;;;;11.35;64.73;101229.88;5074232;28;45549;-66
2024/03/07 10:18:27;;;;;;;;;25.75;19.50;;;;;11.47;64.50;101223.47;5062820;28;45535;-63
2024/03/07 10:20:56;;;;;;;;;22.00;17.75;;;;;11.57;64.30;101222.34;5069197;28;45436;-65
2024/03/07 10:23:22;;;;;;;;;19.00;17.50;;;;;11.69;63.84;101215.13;5062858;28;45225;-66
2024/03/07 10:25:48;;;;;;;;;30.00;19.50;;;;;11.78;63.71;101212.28;5066855;27;46008;-67
2024/03/07 10:28:20;;;;;;;;;24.75;20.50;;;;;11.88;63.32;101215.53;5072403;27;45442;-66
2024/03/07 10:30:45;;;;;;;;;29.00;20.00;;;;;11.96;63.42;101209.22;5064387;28;45409;-66
2024/03/07 10:33:12;;;;;;;;;22.50;20.50;;;;;12.11;63.54;101217.59;5070168;28;45187;-66
2024/03/07 10:35:38;;;;;;;;;28.50;20.00;;;;;12.21;62.84;101210.38;5062762;28;46630;-66
2024/03/07 10:38:06;;;;;;;;;27.00;23.25;;;;;12.28;63.00;101201.44;5073395;28;45338;-65
2024/03/07 10:40:32;;;;;;;;;30.25;25.00;;;;;12.37;63.12;101208.19;5063326;28;45604;-65
2024/03/07 10:43:02;;;;;;;;;34.75;25.75;;;;;12.47;63.22;101199.16;5074951;28;45447;-64
2024/03/07 10:45:29;;;;;;;;;24.25;20.25;;;;;12.52;62.33;101192.88;5065621;27;45490;-65
2024/03/07 10:48:00;;;;;;;;;43.00;33.25;;;;;12.55;62.58;101186.66;5068874;28;45300;-65
2024/03/07 10:50:40;;;;;;;;;44.50;32.50;;;;;12.62;62.32;101197.88;5064820;27;45290;-65
2024/03/07 10:53:19;;;;;;;;;28.00;26.50;;;;;12.68;62.01;101193.31;5066490;28;45477;-65
2024/03/07 10:56:24;;;;;;;;;30.75;24.00;;;;;12.75;61.70;101193.13;5060589;28;46502;-64
2024/03/07 10:58:53;;;;;;;;;27.50;23.50;;;;;12.81;62.13;101185.94;5076468;28;45344;-65
2024/03/07 11:01:20;;;;;;;;;28.00;25.25;;;;;12.88;61.84;101178.75;5065128;28;45291;-65
2024/03/07 11:03:45;;;;;;;;;25.75;23.50;;;;;13.00;62.34;101177.53;5059852;28;45487;-67
2024/03/07 11:06:12;;;;;;;;;29.75;23.75;;;;;13.04;61.65;101168.63;5066546;27;46464;-65
2024/03/07 11:08:39;;;;;;;;;31.75;25.00;;;;;13.06;61.53;101175.56;5061523;28;45886;-66
2024/03/07 11:11:06;;;;;;;;;13.75;5.00;;;;;13.08;61.04;101165.88;5063378;28;45388;-66
2024/03/07 11:13:33;;;;;;;;;27.75;25.50;;;;;13.10;60.92;101168.44;5065762;28;45245;-66